TRA19A EHRD-LEPA
Flight info
| Callsign | TRA19A |
|---|---|
| Flight time | N/A |
| Altitude | 35000 |
| Route | WOODY N872 CIV DCT KOVIN DCT DUCRA DCT RESMI DCT DEKOD DCT DISAK DCT DIRMO DCT VALKU DCT ATSUP DCT MINSO DCT DEGOL DCT PPG DCT ALBER DCT GIR DCT NENDA P84 LORES |
| Aircraft | A21N/M-SDE2E3FGHIRWXY/LB1 |
Departure
| Time | 2026-04-29 09:49 |
|---|---|
| Airport | Rotterdam The Hague Airport (EHRD) |
Arrival
| Time | N/A |
|---|---|
| Airport | Palma de Mallorca Airport (LEPA) |
| Time | Latitude | Longitude | Altitude | Speed | Heading |
|---|---|---|---|---|---|
| 2026-04-29 09:38 | 51.95110 | 4.43488 | 6 ft | 0 kts | 327° |
| 2026-04-29 09:45 | 51.95112 | 4.43486 | 6 ft | 1 kts | 327° |
| 2026-04-29 09:45 | 51.95130 | 4.43468 | 6 ft | 5 kts | 334° |
| 2026-04-29 09:45 | 51.95166 | 4.43493 | 6 ft | 8 kts | 49° |
| 2026-04-29 09:46 | 51.95212 | 4.43550 | 6 ft | 10 kts | 340° |
| 2026-04-29 09:46 | 51.95263 | 4.43460 | 6 ft | 12 kts | 281° |
| 2026-04-29 09:46 | 51.95228 | 4.43336 | 6 ft | 13 kts | 236° |
| 2026-04-29 09:46 | 51.95174 | 4.43208 | 6 ft | 14 kts | 235° |
| 2026-04-29 09:47 | 51.95117 | 4.43070 | 6 ft | 15 kts | 242° |
| 2026-04-29 09:47 | 51.95109 | 4.42983 | 6 ft | 8 kts | 285° |
| 2026-04-29 09:47 | 51.95146 | 4.42907 | 6 ft | 10 kts | 324° |
| 2026-04-29 09:47 | 51.95212 | 4.42869 | 7 ft | 11 kts | 10° |
| 2026-04-29 09:48 | 51.95240 | 4.42904 | 7 ft | 0 kts | 57° |
| 2026-04-29 09:48 | 51.95266 | 4.42972 | 7 ft | 23 kts | 58° |
| 2026-04-29 09:48 | 51.95495 | 4.43545 | 5 ft | 94 kts | 58° |
| 2026-04-29 09:48 | 51.95942 | 4.44678 | 98 ft | 131 kts | 59° |
| 2026-04-29 09:49 | 51.96402 | 4.45850 | 738 ft | 123 kts | 61° |
| 2026-04-29 09:49 | 51.96782 | 4.47157 | 1102 ft | 133 kts | 73° |
| 2026-04-29 09:49 | 51.97091 | 4.48665 | 1423 ft | 153 kts | 66° |
| 2026-04-29 09:49 | 51.97762 | 4.50206 | 1755 ft | 179 kts | 61° |
| 2026-04-29 09:50 | 51.98397 | 4.52067 | 2215 ft | 200 kts | 65° |
| 2026-04-29 09:50 | 51.99094 | 4.54195 | 2583 ft | 223 kts | 65° |
| 2026-04-29 09:50 | 51.99768 | 4.56522 | 3315 ft | 230 kts | 74° |
| 2026-04-29 09:50 | 51.99957 | 4.59071 | 4093 ft | 234 kts | 95° |
| 2026-04-29 09:51 | 51.99466 | 4.61612 | 4884 ft | 242 kts | 117° |
| 2026-04-29 09:51 | 51.98303 | 4.63654 | 5623 ft | 254 kts | 139° |
| 2026-04-29 09:51 | 51.97280 | 4.64637 | 6115 ft | 261 kts | 148° |
| 2026-04-29 09:51 | 51.95610 | 4.65878 | 6857 ft | 267 kts | 154° |
| 2026-04-29 09:52 | 51.93753 | 4.66472 | 7570 ft | 280 kts | 176° |
| 2026-04-29 09:52 | 51.91823 | 4.65751 | 8282 ft | 294 kts | 202° |
| 2026-04-29 09:52 | 51.90200 | 4.63637 | 8953 ft | 306 kts | 229° |
| 2026-04-29 09:52 | 51.88988 | 4.60776 | 9739 ft | 310 kts | 236° |
| 2026-04-29 09:53 | 51.87795 | 4.57858 | 10505 ft | 312 kts | 231° |
| 2026-04-29 09:53 | 51.86178 | 4.55498 | 10881 ft | 323 kts | 206° |
| 2026-04-29 09:53 | 51.84033 | 4.54209 | 11199 ft | 336 kts | 190° |
| 2026-04-29 09:53 | 51.81690 | 4.53298 | 11495 ft | 354 kts | 189° |
| 2026-04-29 09:54 | 51.79277 | 4.52380 | 11956 ft | 364 kts | 189° |
| 2026-04-29 09:54 | 51.76801 | 4.51404 | 12670 ft | 367 kts | 190° |
| 2026-04-29 09:54 | 51.74303 | 4.50392 | 13361 ft | 371 kts | 191° |
| 2026-04-29 09:54 | 51.71783 | 4.49357 | 14051 ft | 374 kts | 191° |
| 2026-04-29 09:55 | 51.69241 | 4.48311 | 14626 ft | 378 kts | 191° |
| 2026-04-29 09:55 | 51.66675 | 4.47262 | 15210 ft | 382 kts | 191° |
| 2026-04-29 09:55 | 51.64109 | 4.46207 | 15779 ft | 386 kts | 191° |
| 2026-04-29 09:55 | 51.61488 | 4.45135 | 16330 ft | 390 kts | 191° |
| 2026-04-29 09:56 | 51.58835 | 4.44053 | 16896 ft | 394 kts | 191° |
| 2026-04-29 09:56 | 51.56163 | 4.42956 | 17447 ft | 397 kts | 191° |
| 2026-04-29 09:56 | 51.53469 | 4.41871 | 17996 ft | 401 kts | 191° |
| 2026-04-29 09:56 | 51.50789 | 4.40790 | 18521 ft | 404 kts | 191° |
| 2026-04-29 09:57 | 51.48048 | 4.39688 | 18997 ft | 407 kts | 191° |
| 2026-04-29 09:57 | 51.45293 | 4.38568 | 19485 ft | 409 kts | 191° |
| 2026-04-29 09:57 | 51.42517 | 4.37435 | 19962 ft | 411 kts | 191° |
| 2026-04-29 09:57 | 51.39779 | 4.36051 | 20416 ft | 417 kts | 199° |
| 2026-04-29 09:58 | 51.37112 | 4.34091 | 20869 ft | 420 kts | 202° |
| 2026-04-29 09:58 | 51.34497 | 4.32079 | 21327 ft | 423 kts | 202° |
| 2026-04-29 09:58 | 51.31825 | 4.30024 | 21750 ft | 425 kts | 202° |
| 2026-04-29 09:58 | 51.29148 | 4.27972 | 22213 ft | 428 kts | 202° |
| 2026-04-29 09:59 | 51.26451 | 4.25914 | 22656 ft | 430 kts | 202° |
| 2026-04-29 09:59 | 51.23761 | 4.23908 | 23084 ft | 433 kts | 201° |
| 2026-04-29 09:59 | 51.21019 | 4.21870 | 23507 ft | 435 kts | 201° |
| 2026-04-29 09:59 | 51.18280 | 4.19816 | 23919 ft | 438 kts | 201° |
| 2026-04-29 10:00 | 51.15501 | 4.17894 | 24255 ft | 438 kts | 196° |
| 2026-04-29 10:00 | 51.12610 | 4.16259 | 24608 ft | 440 kts | 195° |
| 2026-04-29 10:00 | 51.09703 | 4.14664 | 24955 ft | 443 kts | 195° |
| 2026-04-29 10:00 | 51.06778 | 4.13074 | 25290 ft | 445 kts | 194° |
| 2026-04-29 10:01 | 51.03834 | 4.11471 | 25616 ft | 448 kts | 194° |
| 2026-04-29 10:01 | 51.00879 | 4.09859 | 25957 ft | 450 kts | 194° |
| 2026-04-29 10:01 | 50.97899 | 4.08233 | 26275 ft | 452 kts | 194° |
| 2026-04-29 10:01 | 50.94946 | 4.06621 | 26593 ft | 455 kts | 194° |
| 2026-04-29 10:02 | 50.91942 | 4.04974 | 26897 ft | 457 kts | 194° |
| 2026-04-29 10:02 | 50.88919 | 4.03334 | 27199 ft | 460 kts | 194° |
| 2026-04-29 10:02 | 50.85916 | 4.01517 | 27501 ft | 464 kts | 198° |
| 2026-04-29 10:02 | 50.82916 | 3.99586 | 27787 ft | 466 kts | 198° |
| 2026-04-29 10:03 | 50.79904 | 3.97654 | 28068 ft | 468 kts | 198° |
| 2026-04-29 10:03 | 50.76881 | 3.95711 | 28400 ft | 469 kts | 198° |
| 2026-04-29 10:03 | 50.73844 | 3.93771 | 28703 ft | 471 kts | 197° |
| 2026-04-29 10:03 | 50.70795 | 3.91829 | 28964 ft | 473 kts | 198° |
| 2026-04-29 10:04 | 50.67770 | 3.89903 | 29230 ft | 475 kts | 197° |
| 2026-04-29 10:04 | 50.64690 | 3.87944 | 29478 ft | 477 kts | 197° |
| 2026-04-29 10:04 | 50.61591 | 3.85977 | 29725 ft | 478 kts | 197° |
| 2026-04-29 10:04 | 50.58500 | 3.84015 | 30089 ft | 477 kts | 198° |
| 2026-04-29 10:05 | 50.55435 | 3.81970 | 30468 ft | 476 kts | 199° |
| 2026-04-29 10:05 | 50.52439 | 3.79923 | 30809 ft | 473 kts | 200° |
| 2026-04-29 10:05 | 50.49434 | 3.77870 | 31174 ft | 470 kts | 200° |
| 2026-04-29 10:05 | 50.46436 | 3.75822 | 31548 ft | 467 kts | 200° |
| 2026-04-29 10:06 | 50.43450 | 3.73789 | 31916 ft | 464 kts | 200° |
| 2026-04-29 10:06 | 50.40483 | 3.71781 | 32298 ft | 460 kts | 200° |
| 2026-04-29 10:06 | 50.37587 | 3.69821 | 32674 ft | 457 kts | 200° |
| 2026-04-29 10:06 | 50.34668 | 3.67838 | 32997 ft | 455 kts | 202° |
| 2026-04-29 10:07 | 50.31766 | 3.65866 | 33304 ft | 453 kts | 203° |
| 2026-04-29 10:07 | 50.28870 | 3.63912 | 33605 ft | 451 kts | 202° |
| 2026-04-29 10:07 | 50.25983 | 3.61974 | 33890 ft | 450 kts | 202° |
| 2026-04-29 10:07 | 50.23142 | 3.60075 | 34182 ft | 448 kts | 203° |
| 2026-04-29 10:08 | 50.20289 | 3.58163 | 34437 ft | 445 kts | 202° |
| 2026-04-29 10:08 | 50.17449 | 3.56256 | 34660 ft | 444 kts | 203° |
| 2026-04-29 10:08 | 50.14605 | 3.54346 | 34779 ft | 445 kts | 203° |
| 2026-04-29 10:08 | 50.11754 | 3.52434 | 34884 ft | 446 kts | 205° |
| 2026-04-29 10:09 | 50.08904 | 3.50523 | 35019 ft | 446 kts | 205° |
| 2026-04-29 10:09 | 50.06036 | 3.48606 | 35153 ft | 446 kts | 205° |
| 2026-04-29 10:09 | 50.00352 | 3.44798 | 35222 ft | 446 kts | 206° |
| 2026-04-29 10:10 | 49.94647 | 3.40972 | 35191 ft | 446 kts | 206° |
| 2026-04-29 10:10 | 49.88931 | 3.37174 | 35181 ft | 445 kts | 206° |
| 2026-04-29 10:11 | 49.83235 | 3.33420 | 35175 ft | 445 kts | 206° |
| 2026-04-29 10:11 | 49.77564 | 3.29669 | 35174 ft | 445 kts | 206° |
| 2026-04-29 10:12 | 49.71856 | 3.25905 | 35170 ft | 446 kts | 206° |
| 2026-04-29 10:12 | 49.66173 | 3.22172 | 35166 ft | 446 kts | 206° |
| 2026-04-29 10:13 | 49.60456 | 3.18417 | 35163 ft | 447 kts | 207° |
| 2026-04-29 10:13 | 49.54783 | 3.14701 | 35161 ft | 447 kts | 206° |
| 2026-04-29 10:14 | 49.49086 | 3.10941 | 35155 ft | 439 kts | 210° |
| 2026-04-29 10:14 | 49.43906 | 3.05980 | 35152 ft | 437 kts | 217° |
| 2026-04-29 10:15 | 49.38854 | 3.00798 | 35151 ft | 438 kts | 217° |
| 2026-04-29 10:15 | 49.33770 | 2.95639 | 35151 ft | 437 kts | 217° |
| 2026-04-29 10:16 | 49.29535 | 2.91357 | 35148 ft | 439 kts | 217° |
| 2026-04-29 10:16 | 49.26182 | 2.87969 | 35345 ft | 434 kts | 216° |
| 2026-04-29 10:16 | 49.23649 | 2.85405 | 35373 ft | 436 kts | 216° |
| 2026-04-29 10:17 | 49.21106 | 2.82851 | 35502 ft | 436 kts | 216° |
| 2026-04-29 10:17 | 49.18572 | 2.80316 | 35743 ft | 433 kts | 216° |
| 2026-04-29 10:17 | 49.16059 | 2.77797 | 35887 ft | 432 kts | 216° |
| 2026-04-29 10:17 | 49.13577 | 2.75299 | 36020 ft | 431 kts | 216° |
| 2026-04-29 10:18 | 49.11063 | 2.72776 | 36149 ft | 431 kts | 216° |
| 2026-04-29 10:18 | 49.08549 | 2.70269 | 36284 ft | 430 kts | 216° |
| 2026-04-29 10:18 | 49.06043 | 2.67769 | 36416 ft | 429 kts | 216° |
| 2026-04-29 10:18 | 49.03540 | 2.65273 | 36574 ft | 429 kts | 216° |
| 2026-04-29 10:19 | 49.01043 | 2.62785 | 36715 ft | 428 kts | 215° |
| 2026-04-29 10:19 | 48.98555 | 2.60300 | 36922 ft | 426 kts | 215° |
| 2026-04-29 10:19 | 48.96115 | 2.57866 | 37138 ft | 423 kts | 215° |
| 2026-04-29 10:19 | 48.93645 | 2.55419 | 37180 ft | 424 kts | 215° |
| 2026-04-29 10:20 | 48.88652 | 2.50477 | 37153 ft | 429 kts | 215° |
| 2026-04-29 10:20 | 48.83666 | 2.45539 | 37116 ft | 431 kts | 215° |
| 2026-04-29 10:21 | 48.78622 | 2.40563 | 37112 ft | 431 kts | 215° |
| 2026-04-29 10:21 | 48.73613 | 2.35622 | 37110 ft | 430 kts | 215° |
| 2026-04-29 10:22 | 48.68562 | 2.30666 | 37115 ft | 433 kts | 214° |
| 2026-04-29 10:22 | 48.63512 | 2.25735 | 37109 ft | 431 kts | 215° |
| 2026-04-29 10:23 | 48.58508 | 2.20891 | 37101 ft | 427 kts | 212° |
| 2026-04-29 10:23 | 48.55798 | 2.18980 | 37100 ft | 431 kts | 201° |
| 2026-04-29 10:23 | 48.52889 | 2.17795 | 37104 ft | 435 kts | 195° |
| 2026-04-29 10:24 | 48.46966 | 2.15957 | 37086 ft | 433 kts | 194° |
| 2026-04-29 10:24 | 48.41125 | 2.14124 | 37073 ft | 428 kts | 195° |
| 2026-04-29 10:25 | 48.35331 | 2.12271 | 37069 ft | 425 kts | 195° |
| 2026-04-29 10:25 | 48.29495 | 2.10512 | 37064 ft | 427 kts | 189° |
| 2026-04-29 10:26 | 48.23523 | 2.10888 | 37064 ft | 435 kts | 175° |
| 2026-04-29 10:26 | 48.17561 | 2.12252 | 37050 ft | 432 kts | 175° |
| 2026-04-29 10:27 | 48.08591 | 2.13495 | 37049 ft | 432 kts | 181° |
| 2026-04-29 10:28 | 48.02556 | 2.13817 | 37054 ft | 434 kts | 181° |
| 2026-04-29 10:28 | 47.96578 | 2.14162 | 37052 ft | 433 kts | 181° |
| 2026-04-29 10:29 | 47.90580 | 2.14513 | 37048 ft | 430 kts | 181° |
| 2026-04-29 10:29 | 47.84549 | 2.14864 | 37053 ft | 433 kts | 181° |
| 2026-04-29 10:30 | 47.78553 | 2.15216 | 37031 ft | 431 kts | 181° |
| 2026-04-29 10:30 | 47.72607 | 2.15562 | 37024 ft | 428 kts | 181° |
| 2026-04-29 10:31 | 47.66643 | 2.15909 | 37019 ft | 431 kts | 181° |
| 2026-04-29 10:31 | 47.60683 | 2.16255 | 37008 ft | 428 kts | 181° |
| 2026-04-29 10:32 | 47.54694 | 2.16600 | 37012 ft | 429 kts | 181° |
| 2026-04-29 10:32 | 47.48728 | 2.16945 | 37014 ft | 429 kts | 181° |
| 2026-04-29 10:33 | 47.42775 | 2.17290 | 37006 ft | 428 kts | 181° |
| 2026-04-29 10:33 | 47.36846 | 2.17631 | 37012 ft | 429 kts | 181° |
| 2026-04-29 10:34 | 47.30898 | 2.17973 | 37005 ft | 426 kts | 181° |
| 2026-04-29 10:34 | 47.24941 | 2.18316 | 37005 ft | 428 kts | 181° |
| 2026-04-29 10:35 | 47.20004 | 2.18597 | 36999 ft | 426 kts | 181° |
| 2026-04-29 10:35 | 47.13085 | 2.18989 | 36997 ft | 426 kts | 181° |
| 2026-04-29 10:36 | 47.08185 | 2.19775 | 36987 ft | 430 kts | 169° |
| 2026-04-29 10:36 | 47.02504 | 2.22825 | 36996 ft | 435 kts | 161° |
| 2026-04-29 10:37 | 46.96956 | 2.26198 | 36993 ft | 434 kts | 161° |
| 2026-04-29 10:37 | 46.91327 | 2.29517 | 36988 ft | 434 kts | 162° |
| 2026-04-29 10:38 | 46.85738 | 2.32749 | 36995 ft | 432 kts | 162° |
| 2026-04-29 10:38 | 46.80136 | 2.35989 | 36992 ft | 431 kts | 162° |
| 2026-04-29 10:39 | 46.74581 | 2.39207 | 36995 ft | 433 kts | 162° |
| 2026-04-29 10:39 | 46.68982 | 2.42441 | 36989 ft | 431 kts | 162° |
| 2026-04-29 10:40 | 46.63376 | 2.45670 | 36995 ft | 434 kts | 162° |
| 2026-04-29 10:40 | 46.57768 | 2.48894 | 36996 ft | 436 kts | 162° |
| 2026-04-29 10:41 | 46.52140 | 2.52124 | 36982 ft | 436 kts | 162° |
| 2026-04-29 10:41 | 46.46473 | 2.55366 | 36996 ft | 436 kts | 162° |
| 2026-04-29 10:42 | 46.40884 | 2.58560 | 36998 ft | 436 kts | 162° |
| 2026-04-29 10:42 | 46.35211 | 2.61794 | 36993 ft | 434 kts | 162° |